Terminal Aerodrome Forecast
Issued by NWS

Home | Current Version | Previous Version | Text Only | Print | Product List | Glossary On
Versions: 1 2 3 4 5 6 7 8 9 10 11 12 13 14
225
FTUS42 KTBW 230014 AAA
TAFPIE
TAF AMD
KPIE 230014Z 2300/2324 21022G32KT P6SM VCTS SCT015CB BKN030
      TEMPO 2300/2303 3SM +TSRA SCT015CB OVC025
     FM230300 25020G28KT P6SM VCTS SCT015CB OVC030
     FM230700 25020G29KT P6SM VCSH BKN020 OVC040
     FM231200 27016G23KT P6SM SCT030 BKN040
     FM232100 30017G24KT P6SM SCT040 SCT250=

USA.gov is the U.S. government's official web portal to all federal, state and local government web resources and services.